Terminal Aerodrome Forecast
Issued by NWS

Current Version | Previous Version | Text Only | Print | Product List | Glossary On
Versions: 1 2 3 4 5 6 7 8 9 10 11 12 13 14 15 16 17 18 19 20 21 22 23 24 25 26 27 28 29 30 31 32 33 34 35
000
FTPA31 PHFO 261700
TAFITO
TAF
PHTO 261722Z 2618/2718 30006KT P6SM VCSH FEW010 SCT025 BKN040
     FM262000 03012KT P6SM -SHRA SCT010 BKN025 OVC040
     FM270400 33009KT P6SM VCSH FEW010 SCT025 BKN040
     FM271000 27009KT P6SM VCSH FEW010 SCT025 BKN040=

USA.gov is the U.S. government's official web portal to all federal, state and local government web resources and services.